Time;durP1;ratioP1;P1;durP2;ratioP2;P2;SDS_P1;SDS_P2;PMS_P1;PMS_P2;Temp;Humidity;BMP_temperature;BMP_pressure;BME280_temperature;BME280_humidity;BME280_pressure;Samples;Min_cycle;Max_cycle;Signal;HPM_P1;HPM_P2
2022/05/13 00:01:57;;;;;;;12.93;6.38;;;;;;;;;;6223170;28;20058;-71
2022/05/13 00:04:59;;;;;;;15.07;6.63;;;;;;;;;;6218932;28;20096;-71
2022/05/13 00:08:00;;;;;;;10.88;5.60;;;;;;;;;;6223821;28;20050;-71
2022/05/13 00:11:05;;;;;;;58.10;31.27;;;;;;;;;;6217001;28;20045;-71
2022/05/13 00:14:08;;;;;;;17.10;7.20;;;;;;;;;;6229165;28;20369;-71
2022/05/13 00:17:10;;;;;;;11.85;4.22;;;;;;;;;;6221827;28;20100;-71
2022/05/13 00:20:12;;;;;;;9.65;4.20;;;;;;;;;;6224352;28;20460;-71
2022/05/13 00:23:14;;;;;;;8.98;4.70;;;;;;;;;;6221398;28;20100;-71
2022/05/13 00:26:17;;;;;;;6.57;3.80;;;;;;;;;;6223832;28;20256;-71
2022/05/13 00:29:19;;;;;;;10.63;4.30;;;;;;;;;;6228623;28;20235;-71
2022/05/13 00:32:21;;;;;;;9.18;4.20;;;;;;;;;;6224075;28;20088;-71
2022/05/13 00:35:23;;;;;;;6.22;4.05;;;;;;;;;;6227225;28;20056;-71
2022/05/13 00:38:25;;;;;;;8.73;4.18;;;;;;;;;;6223857;28;20050;-71
2022/05/13 00:41:29;;;;;;;7.50;4.32;;;;;;;;;;6223268;28;20121;-71
2022/05/13 00:44:31;;;;;;;9.18;4.40;;;;;;;;;;6222028;28;20058;-71
2022/05/13 00:47:32;;;;;;;8.88;4.25;;;;;;;;;;6224226;28;20053;-71
2022/05/13 00:50:36;;;;;;;7.40;3.90;;;;;;;;;;6231582;28;20085;-70
2022/05/13 00:53:38;;;;;;;8.32;3.70;;;;;;;;;;6225941;28;20038;-70
2022/05/13 00:56:43;;;;;;;7.93;3.55;;;;;;;;;;6228033;28;20061;-71
2022/05/13 00:59:46;;;;;;;9.38;3.95;;;;;;;;;;6224151;28;20244;-70
2022/05/13 01:02:48;;;;;;;6.95;3.85;;;;;;;;;;6222585;28;20329;-70
2022/05/13 01:05:53;;;;;;;6.13;4.05;;;;;;;;;;6227120;28;20042;-69
2022/05/13 01:08:56;;;;;;;7.13;3.75;;;;;;;;;;6217149;28;20049;-69
2022/05/13 01:11:59;;;;;;;7.97;3.92;;;;;;;;;;6224293;28;20065;-69
2022/05/13 01:15:05;;;;;;;7.88;3.85;;;;;;;;;;6224882;28;20045;-69
2022/05/13 01:18:07;;;;;;;10.88;4.00;;;;;;;;;;6226574;28;20050;-69
2022/05/13 01:21:11;;;;;;;7.78;4.03;;;;;;;;;;6219957;28;20329;-70
2022/05/13 01:24:14;;;;;;;5.85;4.00;;;;;;;;;;6223059;28;20053;-69
2022/05/13 01:27:16;;;;;;;9.80;4.37;;;;;;;;;;6224359;28;20249;-69
2022/05/13 01:30:20;;;;;;;8.23;4.05;;;;;;;;;;6221631;28;20045;-70
2022/05/13 01:33:22;;;;;;;7.97;4.15;;;;;;;;;;6218632;28;20221;-69
2022/05/13 01:36:24;;;;;;;9.07;4.35;;;;;;;;;;6217463;28;20054;-70
2022/05/13 01:39:27;;;;;;;6.20;4.38;;;;;;;;;;6221757;28;20100;-70
2022/05/13 01:42:29;;;;;;;7.40;4.60;;;;;;;;;;6226072;28;20407;-69
2022/05/13 01:45:31;;;;;;;8.52;4.25;;;;;;;;;;6225858;28;20046;-70
2022/05/13 01:48:32;;;;;;;8.18;4.30;;;;;;;;;;6225750;28;20065;-70
2022/05/13 01:51:34;;;;;;;11.45;4.65;;;;;;;;;;6226303;28;20064;-70
2022/05/13 01:54:37;;;;;;;7.45;3.83;;;;;;;;;;6226015;28;20357;-70
2022/05/13 01:57:39;;;;;;;7.57;4.60;;;;;;;;;;6226804;28;20046;-70
2022/05/13 02:00:41;;;;;;;7.15;4.07;;;;;;;;;;6220321;28;20049;-71
2022/05/13 02:03:45;;;;;;;11.45;4.47;;;;;;;;;;6222848;28;20050;-70
2022/05/13 02:06:47;;;;;;;9.25;4.60;;;;;;;;;;6219164;28;20325;-70
2022/05/13 02:09:50;;;;;;;8.45;4.68;;;;;;;;;;6227765;28;20104;-70
2022/05/13 02:12:52;;;;;;;10.37;4.53;;;;;;;;;;6217067;28;20396;-70
2022/05/13 02:15:54;;;;;;;7.70;4.65;;;;;;;;;;6222350;28;20046;-70
2022/05/13 02:18:55;;;;;;;10.73;4.68;;;;;;;;;;6218300;28;20332;-70
2022/05/13 02:21:57;;;;;;;6.85;4.47;;;;;;;;;;6227776;28;20237;-70
2022/05/13 02:25:00;;;;;;;8.95;4.30;;;;;;;;;;6224963;28;20249;-70
2022/05/13 02:28:03;;;;;;;7.78;4.43;;;;;;;;;;6222421;28;20045;-70
2022/05/13 02:31:05;;;;;;;9.07;4.63;;;;;;;;;;6223937;28;20046;-70
2022/05/13 02:34:06;;;;;;;9.52;4.88;;;;;;;;;;6227633;28;20053;-69
2022/05/13 02:37:08;;;;;;;9.32;4.32;;;;;;;;;;6224885;28;20047;-69
2022/05/13 02:40:13;;;;;;;11.20;5.18;;;;;;;;;;6229457;28;20042;-69
2022/05/13 02:43:15;;;;;;;9.00;4.43;;;;;;;;;;6221894;28;20096;-69
2022/05/13 02:46:18;;;;;;;10.18;5.05;;;;;;;;;;6217748;28;20325;-69
2022/05/13 02:49:20;;;;;;;9.88;4.90;;;;;;;;;;6223786;28;20046;-69
2022/05/13 02:52:21;;;;;;;8.38;5.20;;;;;;;;;;6230098;28;20065;-69
2022/05/13 02:55:24;;;;;;;9.93;4.72;;;;;;;;;;6231402;28;20057;-69
2022/05/13 02:58:27;;;;;;;10.75;5.47;;;;;;;;;;6230464;28;20104;-69
2022/05/13 03:01:28;;;;;;;7.63;4.65;;;;;;;;;;6232984;28;20058;-69
2022/05/13 03:04:30;;;;;;;10.65;4.75;;;;;;;;;;6231719;28;20328;-69
2022/05/13 03:07:31;;;;;;;7.40;4.78;;;;;;;;;;6233853;28;20049;-69
2022/05/13 03:10:37;;;;;;;11.10;4.88;;;;;;;;;;6231792;28;20056;-70
2022/05/13 03:13:39;;;;;;;11.15;5.20;;;;;;;;;;6227412;28;20057;-69
2022/05/13 03:16:40;;;;;;;9.57;4.85;;;;;;;;;;6225138;28;20095;-70
2022/05/13 03:19:42;;;;;;;9.65;5.13;;;;;;;;;;6225415;28;20058;-69
2022/05/13 03:22:44;;;;;;;8.75;4.95;;;;;;;;;;6225726;28;20380;-69
2022/05/13 03:25:47;;;;;;;8.90;4.85;;;;;;;;;;6225907;28;20043;-69
2022/05/13 03:28:49;;;;;;;8.27;4.63;;;;;;;;;;6226116;28;20248;-67
2022/05/13 03:31:50;;;;;;;7.68;4.93;;;;;;;;;;6223181;28;20272;-69
2022/05/13 03:34:52;;;;;;;6.60;4.22;;;;;;;;;;6227512;28;20096;-70
2022/05/13 03:37:54;;;;;;;8.82;4.45;;;;;;;;;;6228765;28;20049;-69
2022/05/13 03:40:57;;;;;;;7.13;4.00;;;;;;;;;;6229842;28;20049;-69
2022/05/13 03:43:58;;;;;;;6.93;4.55;;;;;;;;;;6226412;28;20050;-69
2022/05/13 03:47:00;;;;;;;8.07;4.57;;;;;;;;;;6218759;28;20226;-69
2022/05/13 03:50:03;;;;;;;11.32;4.55;;;;;;;;;;6221658;28;20046;-69
2022/05/13 03:53:05;;;;;;;7.70;4.35;;;;;;;;;;6217315;28;20337;-69
2022/05/13 03:56:08;;;;;;;11.15;5.05;;;;;;;;;;6228691;28;20046;-69
2022/05/13 03:59:10;;;;;;;8.52;4.72;;;;;;;;;;6224702;28;20077;-69
2022/05/13 04:02:12;;;;;;;10.20;4.45;;;;;;;;;;6226290;28;20042;-69
2022/05/13 04:18:29;;;;;;;11.38;4.00;;;;;;;;;;6221578;28;20053;-69
2022/05/13 04:21:32;;;;;;;5.70;3.85;;;;;;;;;;6217822;28;20045;-68
2022/05/13 04:24:34;;;;;;;8.30;3.88;;;;;;;;;;6225438;28;20054;-69
2022/05/13 04:27:37;;;;;;;10.15;4.40;;;;;;;;;;6222740;28;20068;-69
2022/05/13 04:30:38;;;;;;;9.95;4.25;;;;;;;;;;6222237;28;20054;-70
2022/05/13 04:33:41;;;;;;;11.25;4.78;;;;;;;;;;6219661;28;20054;-69
2022/05/13 04:36:42;;;;;;;8.98;5.45;;;;;;;;;;6221813;28;20077;-70
2022/05/13 04:39:44;;;;;;;9.23;4.40;;;;;;;;;;6218693;28;20088;-69
2022/05/13 04:42:49;;;;;;;7.40;4.35;;;;;;;;;;6218565;28;20391;-69
2022/05/13 04:45:51;;;;;;;10.80;4.43;;;;;;;;;;6217681;28;20447;-70
2022/05/13 04:48:53;;;;;;;8.68;4.93;;;;;;;;;;6224019;28;20076;-70
2022/05/13 04:51:55;;;;;;;8.23;5.38;;;;;;;;;;6223603;28;20329;-72
2022/05/13 04:54:57;;;;;;;9.52;5.15;;;;;;;;;;6224853;28;25020;-70
2022/05/13 04:58:00;;;;;;;10.68;4.75;;;;;;;;;;6218557;28;20046;-70
2022/05/13 05:01:03;;;;;;;10.65;5.05;;;;;;;;;;6221253;28;20050;-70
2022/05/13 05:04:05;;;;;;;7.70;4.50;;;;;;;;;;6218351;28;20050;-71
2022/05/13 05:07:06;;;;;;;13.55;5.20;;;;;;;;;;6218362;28;20057;-69
2022/05/13 05:10:10;;;;;;;8.68;4.57;;;;;;;;;;6218013;28;20054;-70
2022/05/13 05:13:17;;;;;;;10.75;4.65;;;;;;;;;;6218097;28;20050;-71
2022/05/13 05:16:22;;;;;;;6.18;4.50;;;;;;;;;;6220069;28;20453;-70
2022/05/13 05:19:23;;;;;;;8.68;4.38;;;;;;;;;;6218193;28;20329;-70
2022/05/13 05:22:25;;;;;;;7.32;3.80;;;;;;;;;;6224522;28;20050;-70
2022/05/13 05:25:28;;;;;;;9.32;4.60;;;;;;;;;;6226967;28;20054;-69
2022/05/13 05:28:32;;;;;;;7.60;4.30;;;;;;;;;;6223658;28;20069;-70
2022/05/13 05:31:33;;;;;;;10.85;4.40;;;;;;;;;;6223147;28;20058;-71
2022/05/13 05:34:35;;;;;;;9.68;4.10;;;;;;;;;;6218525;28;20337;-70
2022/05/13 05:37:36;;;;;;;8.00;4.05;;;;;;;;;;6216778;28;20057;-70
2022/05/13 05:40:40;;;;;;;11.00;4.00;;;;;;;;;;6225612;28;20287;-71
2022/05/13 05:43:43;;;;;;;9.23;3.75;;;;;;;;;;6233420;28;20309;-70
2022/05/13 05:46:44;;;;;;;12.60;4.28;;;;;;;;;;6228747;28;20076;-70
2022/05/13 05:49:46;;;;;;;9.45;3.72;;;;;;;;;;6224014;28;20401;-70
2022/05/13 05:52:48;;;;;;;8.85;4.07;;;;;;;;;;6223841;28;20057;-70
2022/05/13 05:59:10;;;;;;;8.25;3.80;;;;;;;;;;6221362;28;20336;-70
2022/05/13 06:02:12;;;;;;;6.70;3.65;;;;;;;;;;6216402;28;20332;-70
2022/05/13 06:05:14;;;;;;;6.30;2.97;;;;;;;;;;6222701;28;20407;-70
2022/05/13 06:08:15;;;;;;;7.43;3.05;;;;;;;;;;6222201;28;20510;-71
2022/05/13 06:11:17;;;;;;;7.40;3.40;;;;;;;;;;6222749;28;20061;-70
2022/05/13 06:14:20;;;;;;;8.27;3.08;;;;;;;;;;6174712;28;20067;-70
2022/05/13 06:17:22;;;;;;;5.25;2.60;;;;;;;;;;6174955;28;20063;-70
2022/05/13 06:20:26;;;;;;;6.18;2.60;;;;;;;;;;6173023;28;20059;-70
2022/05/13 06:23:28;;;;;;;7.00;2.95;;;;;;;;;;6171907;28;20114;-71
2022/05/13 06:26:31;;;;;;;7.40;2.90;;;;;;;;;;6174113;28;20051;-70
2022/05/13 06:29:36;;;;;;;6.85;2.50;;;;;;;;;;6165043;28;20055;-70
2022/05/13 06:32:38;;;;;;;7.28;2.92;;;;;;;;;;6172539;28;20058;-68
2022/05/13 06:35:41;;;;;;;6.32;3.20;;;;;;;;;;6171546;28;20098;-67
2022/05/13 06:38:42;;;;;;;8.00;3.35;;;;;;;;;;6174324;28;20102;-67
2022/05/13 06:41:44;;;;;;;6.30;2.55;;;;;;;;;;6171156;28;20055;-67
2022/05/13 06:44:52;;;;;;;8.85;2.63;;;;;;;;;;6173146;28;20051;-68
2022/05/13 06:47:54;;;;;;;5.80;2.70;;;;;;;;;;6171384;28;20470;-68
2022/05/13 06:50:56;;;;;;;5.43;3.13;;;;;;;;;;6174401;28;20046;-66
2022/05/13 06:54:03;;;;;;;4.70;2.78;;;;;;;;;;6168040;28;20086;-67
2022/05/13 06:57:05;;;;;;;6.13;3.08;;;;;;;;;;6172942;28;20119;-67
2022/05/13 07:00:11;;;;;;;5.05;2.67;;;;;;;;;;6167036;28;20110;-68
2022/05/13 07:03:13;;;;;;;9.73;3.40;;;;;;;;;;6174636;28;20043;-68
2022/05/13 07:06:15;;;;;;;8.90;2.72;;;;;;;;;;6176574;28;20110;-68
2022/05/13 07:09:16;;;;;;;6.95;2.90;;;;;;;;;;6179688;28;20070;-66
2022/05/13 07:12:18;;;;;;;6.82;2.65;;;;;;;;;;6191227;28;20171;-67
2022/05/13 07:15:21;;;;;;;7.85;2.88;;;;;;;;;;6222179;28;20064;-67
2022/05/13 07:18:23;;;;;;;7.32;2.58;;;;;;;;;;6221380;28;20053;-65
2022/05/13 07:21:25;;;;;;;6.32;2.80;;;;;;;;;;6219204;28;20054;-66
2022/05/13 07:24:26;;;;;;;5.97;2.70;;;;;;;;;;6220287;28;20045;-67
2022/05/13 07:27:28;;;;;;;8.02;2.88;;;;;;;;;;6221303;28;20054;-67
2022/05/13 07:30:31;;;;;;;6.07;3.03;;;;;;;;;;6222130;28;20061;-66
2022/05/13 07:33:33;;;;;;;9.90;3.10;;;;;;;;;;6226466;28;20050;-66
2022/05/13 07:36:34;;;;;;;7.70;2.85;;;;;;;;;;6222958;28;20054;-67
2022/05/13 07:42:55;;;;;;;4.53;2.80;;;;;;;;;;6223699;28;20333;-70
2022/05/13 07:45:59;;;;;;;8.68;3.33;;;;;;;;;;6221455;28;20042;-68
2022/05/13 07:49:00;;;;;;;7.55;2.75;;;;;;;;;;6215014;28;20337;-68
2022/05/13 07:52:02;;;;;;;5.70;2.60;;;;;;;;;;6216833;28;20335;-67
2022/05/13 07:55:05;;;;;;;9.52;2.85;;;;;;;;;;6229470;28;20045;-68
2022/05/13 07:58:07;;;;;;;5.77;2.80;;;;;;;;;;6231579;28;20058;-69
2022/05/13 08:01:10;;;;;;;6.78;2.75;;;;;;;;;;6230776;28;20449;-69
2022/05/13 08:04:12;;;;;;;5.38;2.92;;;;;;;;;;6228620;28;20041;-69
2022/05/13 08:07:13;;;;;;;5.75;2.83;;;;;;;;;;6227782;28;20054;-69
2022/05/13 08:10:15;;;;;;;7.05;2.50;;;;;;;;;;6226293;28;20105;-69
2022/05/13 08:13:17;;;;;;;5.40;2.83;;;;;;;;;;6223894;28;20569;-69
2022/05/13 08:16:25;;;;;;;4.95;2.45;;;;;;;;;;6224418;28;20053;-70
2022/05/13 08:19:26;;;;;;;4.95;2.90;;;;;;;;;;6223485;28;20072;-68
2022/05/13 08:22:28;;;;;;;5.80;3.20;;;;;;;;;;6224126;28;20050;-67
2022/05/13 08:25:30;;;;;;;7.55;2.95;;;;;;;;;;6227755;28;20081;-68
2022/05/13 08:28:32;;;;;;;8.63;3.25;;;;;;;;;;6225177;28;20109;-68
2022/05/13 08:31:36;;;;;;;7.18;3.53;;;;;;;;;;6225087;28;20045;-68
2022/05/13 08:34:39;;;;;;;4.65;3.15;;;;;;;;;;6227663;28;20050;-68
2022/05/13 08:37:42;;;;;;;7.03;3.20;;;;;;;;;;6223635;28;20041;-67
2022/05/13 08:41:03;;;;;;;7.18;3.95;;;;;;;;;;6225200;28;20057;-68
2022/05/13 08:44:09;;;;;;;9.57;4.10;;;;;;;;;;6217098;28;20062;-67
2022/05/13 08:47:15;;;;;;;6.55;3.65;;;;;;;;;;6221452;28;20127;-67
2022/05/13 08:50:22;;;;;;;6.97;4.00;;;;;;;;;;6223627;28;20061;-68
2022/05/13 08:53:30;;;;;;;11.38;3.60;;;;;;;;;;6224993;28;20050;-67
2022/05/13 08:56:32;;;;;;;12.07;3.90;;;;;;;;;;6223145;28;20240;-68
2022/05/13 08:59:42;;;;;;;8.77;3.45;;;;;;;;;;6224033;28;20046;-67
2022/05/13 09:02:50;;;;;;;5.95;3.33;;;;;;;;;;6221865;28;20097;-67
2022/05/13 09:05:54;;;;;;;5.65;3.30;;;;;;;;;;6225374;28;20058;-67
2022/05/13 09:09:01;;;;;;;7.82;3.65;;;;;;;;;;6225402;28;20356;-67
2022/05/13 09:12:08;;;;;;;7.03;3.53;;;;;;;;;;6224849;28;20333;-67
2022/05/13 09:15:14;;;;;;;9.23;4.07;;;;;;;;;;6219396;28;20046;-68
2022/05/13 09:18:24;;;;;;;9.02;3.60;;;;;;;;;;6224843;28;20049;-68
2022/05/13 09:21:26;;;;;;;10.43;4.18;;;;;;;;;;6219659;28;20104;-67
2022/05/13 09:24:28;;;;;;;10.13;4.15;;;;;;;;;;6222363;28;20301;-67
2022/05/13 09:27:29;;;;;;;6.10;3.65;;;;;;;;;;6221785;28;20272;-67
2022/05/13 09:30:35;;;;;;;7.32;3.97;;;;;;;;;;6219437;28;20061;-67
2022/05/13 09:33:40;;;;;;;10.75;3.90;;;;;;;;;;6220624;28;20057;-68
2022/05/13 09:36:42;;;;;;;4.85;3.42;;;;;;;;;;6221016;28;20054;-67
2022/05/13 09:39:46;;;;;;;12.73;3.75;;;;;;;;;;6215520;28;20142;-67
2022/05/13 09:42:50;;;;;;;7.82;4.30;;;;;;;;;;6220094;28;20054;-67
2022/05/13 09:46:03;;;;;;;6.18;3.92;;;;;;;;;;6218387;28;20050;-68
2022/05/13 09:49:13;;;;;;;7.68;3.50;;;;;;;;;;6219064;28;20045;-67
2022/05/13 09:52:16;;;;;;;5.22;3.05;;;;;;;;;;6226287;28;20140;-68
2022/05/13 09:55:28;;;;;;;7.82;3.75;;;;;;;;;;6216416;28;20106;-68
2022/05/13 09:58:32;;;;;;;7.85;3.58;;;;;;;;;;6219276;28;20073;-68
2022/05/13 10:01:34;;;;;;;6.50;3.63;;;;;;;;;;6212482;28;20046;-68
2022/05/13 10:04:38;;;;;;;7.88;3.80;;;;;;;;;;6214321;28;20376;-67
2022/05/13 10:07:46;;;;;;;7.40;3.95;;;;;;;;;;6215248;28;20210;-71
2022/05/13 10:14:27;;;;;;;7.15;4.03;;;;;;;;;;6216279;28;20046;-71
2022/05/13 10:17:29;;;;;;;8.35;4.10;;;;;;;;;;6222006;28;20084;-71
2022/05/13 10:20:35;;;;;;;9.60;3.70;;;;;;;;;;6221635;28;20354;-71
2022/05/13 10:23:39;;;;;;;12.32;3.70;;;;;;;;;;6224434;28;20050;-71
2022/05/13 10:26:42;;;;;;;51.15;30.10;;;;;;;;;;6226511;28;20052;-70
2022/05/13 10:29:46;;;;;;;11.13;4.82;;;;;;;;;;6220622;28;20050;-69
2022/05/13 10:32:53;;;;;;;10.45;4.72;;;;;;;;;;6223414;28;20108;-69
2022/05/13 10:35:59;;;;;;;21.00;11.93;;;;;;;;;;6223250;28;20070;-68
2022/05/13 10:39:06;;;;;;;51.33;32.58;;;;;;;;;;6232162;28;20046;-71
2022/05/13 10:42:12;;;;;;;10.88;3.70;;;;;;;;;;6226757;28;20073;-71
2022/05/13 10:45:19;;;;;;;6.85;3.63;;;;;;;;;;6228223;28;20050;-72
2022/05/13 10:48:28;;;;;;;6.75;3.40;;;;;;;;;;6223570;28;20045;-71
2022/05/13 10:51:35;;;;;;;6.18;2.90;;;;;;;;;;6222354;28;20045;-72
2022/05/13 10:54:43;;;;;;;6.45;3.50;;;;;;;;;;6225399;28;20112;-72
2022/05/13 10:57:51;;;;;;;5.93;3.15;;;;;;;;;;6221661;28;20391;-71
2022/05/13 11:00:57;;;;;;;7.68;3.53;;;;;;;;;;6221456;28;20346;-72
2022/05/13 11:04:00;;;;;;;9.45;4.40;;;;;;;;;;6231914;28;20050;-71
2022/05/13 11:07:12;;;;;;;8.85;3.28;;;;;;;;;;6218864;28;20057;-72
2022/05/13 11:10:22;;;;;;;8.10;3.43;;;;;;;;;;6221275;28;20050;-71
2022/05/13 11:13:46;;;;;;;8.95;4.03;;;;;;;;;;6225667;28;20304;-71
2022/05/13 11:16:52;;;;;;;7.10;3.95;;;;;;;;;;6222623;28;20072;-72
2022/05/13 11:20:04;;;;;;;5.38;3.40;;;;;;;;;;6222233;28;20058;-72
2022/05/13 11:23:16;;;;;;;7.28;4.35;;;;;;;;;;6224408;28;20320;-71
2022/05/13 11:26:22;;;;;;;6.15;3.70;;;;;;;;;;6219873;28;20050;-71
2022/05/13 11:29:27;;;;;;;7.97;3.65;;;;;;;;;;6226868;28;20074;-71
2022/05/13 11:32:35;;;;;;;6.78;3.30;;;;;;;;;;6224445;28;20054;-71
2022/05/13 11:35:41;;;;;;;7.47;3.30;;;;;;;;;;6224117;28;20062;-72
2022/05/13 11:38:55;;;;;;;6.68;3.40;;;;;;;;;;6223067;28;20069;-72
2022/05/13 11:42:05;;;;;;;6.10;3.25;;;;;;;;;;6221073;28;20050;-71
2022/05/13 11:45:23;;;;;;;7.50;3.17;;;;;;;;;;6221492;28;20100;-71
2022/05/13 11:48:28;;;;;;;5.05;2.85;;;;;;;;;;6222207;28;20046;-71
2022/05/13 11:51:34;;;;;;;16.42;9.52;;;;;;;;;;6218859;28;20054;-70
2022/05/13 11:54:37;;;;;;;10.73;6.97;;;;;;;;;;6216863;28;20058;-70
2022/05/13 11:57:43;;;;;;;4.57;3.50;;;;;;;;;;6223650;28;20256;-69
2022/05/13 12:00:46;;;;;;;6.50;3.22;;;;;;;;;;6223576;28;20340;-69
2022/05/13 12:04:34;;;;;;;6.25;3.20;;;;;;;;;;6229251;28;20051;-68
2022/05/13 12:07:40;;;;;;;8.43;2.95;;;;;;;;;;6197044;28;20092;-69
2022/05/13 12:10:52;;;;;;;9.07;3.50;;;;;;;;;;6222860;28;20050;-69
2022/05/13 12:14:05;;;;;;;7.20;3.08;;;;;;;;;;6221936;28;20068;-70
2022/05/13 12:17:12;;;;;;;4.70;3.05;;;;;;;;;;6216387;28;20236;-69
2022/05/13 12:20:25;;;;;;;8.20;2.97;;;;;;;;;;6223235;28;20117;-68
2022/05/13 12:23:31;;;;;;;5.85;3.25;;;;;;;;;;6222043;28;20049;-68
2022/05/13 12:27:10;;;;;;;6.38;3.28;;;;;;;;;;6223354;28;20053;-68
2022/05/13 12:30:40;;;;;;;25.20;18.52;;;;;;;;;;6218768;28;20042;-69
2022/05/13 12:33:50;;;;;;;266.15;216.57;;;;;;;;;;6220352;28;20333;-69
2022/05/13 12:37:38;;;;;;;24.50;16.40;;;;;;;;;;6223167;28;20050;-69
2022/05/13 12:40:57;;;;;;;5.63;3.80;;;;;;;;;;6221278;28;20050;-69
2022/05/13 12:44:10;;;;;;;6.15;3.50;;;;;;;;;;6220237;28;20096;-68
2022/05/13 12:47:26;;;;;;;6.20;2.83;;;;;;;;;;6211922;28;20050;-68
2022/05/13 12:50:30;;;;;;;7.10;3.78;;;;;;;;;;6224930;28;20054;-68
2022/05/13 12:53:40;;;;;;;17.67;4.45;;;;;;;;;;6228353;28;20264;-69
2022/05/13 12:56:44;;;;;;;5.85;3.22;;;;;;;;;;6224390;28;20046;-69
2022/05/13 12:59:52;;;;;;;12.13;3.33;;;;;;;;;;6225875;28;20210;-69
2022/05/13 13:02:56;;;;;;;9.77;3.38;;;;;;;;;;6222103;28;20054;-69
2022/05/13 13:06:00;;;;;;;8.35;3.53;;;;;;;;;;6221415;28;20050;-69
2022/05/13 13:09:03;;;;;;;9.25;3.60;;;;;;;;;;6220586;28;20068;-68
2022/05/13 13:12:09;;;;;;;9.98;3.40;;;;;;;;;;6227581;28;20054;-69
2022/05/13 13:15:15;;;;;;;8.65;3.20;;;;;;;;;;6221954;28;20158;-69
2022/05/13 13:18:29;;;;;;;3.92;3.20;;;;;;;;;;6224542;28;20068;-68
2022/05/13 13:21:31;;;;;;;6.88;3.30;;;;;;;;;;6230689;28;20046;-69
2022/05/13 13:24:36;;;;;;;12.40;3.00;;;;;;;;;;6223336;28;20067;-68
2022/05/13 13:27:39;;;;;;;4.32;2.80;;;;;;;;;;6225218;28;20336;-69
2022/05/13 13:30:43;;;;;;;5.40;3.30;;;;;;;;;;6224132;28;20115;-69
2022/05/13 13:33:50;;;;;;;10.20;3.17;;;;;;;;;;6222576;28;20050;-69
2022/05/13 13:36:54;;;;;;;10.43;3.30;;;;;;;;;;6219405;28;20108;-69
2022/05/13 13:39:57;;;;;;;8.43;3.83;;;;;;;;;;6224073;28;20050;-68
2022/05/13 13:43:17;;;;;;;7.32;3.78;;;;;;;;;;6220899;28;20328;-69
2022/05/13 13:46:22;;;;;;;8.73;3.80;;;;;;;;;;6222253;28;20065;-70
2022/05/13 13:49:31;;;;;;;10.30;3.65;;;;;;;;;;6225686;28;20362;-68
2022/05/13 13:52:35;;;;;;;6.32;3.58;;;;;;;;;;6224829;28;20056;-67
2022/05/13 13:55:39;;;;;;;9.45;4.00;;;;;;;;;;6218511;28;20042;-68
2022/05/13 13:59:03;;;;;;;7.65;3.20;;;;;;;;;;6223141;28;20053;-68
2022/05/13 14:02:06;;;;;;;6.57;3.72;;;;;;;;;;6219702;28;20379;-68
2022/05/13 14:05:12;;;;;;;3.85;2.80;;;;;;;;;;6218552;28;20043;-68
2022/05/13 14:08:16;;;;;;;7.22;3.00;;;;;;;;;;6221552;28;20328;-68
2022/05/13 14:11:20;;;;;;;5.75;3.03;;;;;;;;;;6222915;28;20097;-68
2022/05/13 14:14:22;;;;;;;7.28;3.35;;;;;;;;;;6224331;28;20060;-69
2022/05/13 14:17:25;;;;;;;9.50;3.30;;;;;;;;;;6226753;28;20132;-69
2022/05/13 14:20:34;;;;;;;9.18;3.50;;;;;;;;;;6228761;28;20241;-69
2022/05/13 14:23:38;;;;;;;10.23;3.70;;;;;;;;;;6226631;28;20058;-69
2022/05/13 14:26:51;;;;;;;11.40;3.78;;;;;;;;;;6223758;28;20252;-69
2022/05/13 14:29:57;;;;;;;8.73;3.40;;;;;;;;;;6221642;28;20122;-68
2022/05/13 14:33:00;;;;;;;9.32;3.75;;;;;;;;;;6221452;28;20061;-68
2022/05/13 14:36:07;;;;;;;6.72;3.08;;;;;;;;;;6217675;28;20367;-68
2022/05/13 14:42:42;;;;;;;7.63;3.60;;;;;;;;;;6212800;28;20065;-68
2022/05/13 14:45:45;;;;;;;7.63;4.13;;;;;;;;;;6223951;28;20181;-69
2022/05/13 14:48:46;;;;;;;10.73;3.38;;;;;;;;;;6223799;28;20050;-70
2022/05/13 14:51:50;;;;;;;6.03;3.63;;;;;;;;;;6220854;28;20098;-69
2022/05/13 14:54:53;;;;;;;8.30;4.32;;;;;;;;;;6219709;28;20050;-69
2022/05/13 14:57:55;;;;;;;8.63;3.75;;;;;;;;;;6220460;28;20121;-69
2022/05/13 15:01:01;;;;;;;15.02;4.03;;;;;;;;;;6215160;28;20073;-70
2022/05/13 15:04:15;;;;;;;10.57;3.85;;;;;;;;;;6225358;28;20057;-69
2022/05/13 15:07:20;;;;;;;12.55;3.47;;;;;;;;;;6223454;28;20270;-70
2022/05/13 15:10:24;;;;;;;11.68;3.30;;;;;;;;;;6228986;28;20061;-69
2022/05/13 15:13:27;;;;;;;11.95;3.88;;;;;;;;;;6226016;28;20058;-69
2022/05/13 15:16:31;;;;;;;10.70;3.58;;;;;;;;;;6226427;28;20058;-69
2022/05/13 15:19:36;;;;;;;12.35;3.30;;;;;;;;;;6226441;28;20083;-69
2022/05/13 15:22:40;;;;;;;13.30;3.97;;;;;;;;;;6232769;28;20365;-69
2022/05/13 15:25:43;;;;;;;14.13;3.92;;;;;;;;;;6230924;28;20049;-68
2022/05/13 15:28:45;;;;;;;7.25;3.47;;;;;;;;;;6225546;28;20049;-68
2022/05/13 15:31:47;;;;;;;10.05;3.83;;;;;;;;;;6235285;28;20608;-68
2022/05/13 15:34:50;;;;;;;6.00;3.40;;;;;;;;;;6230465;28;20069;-69
2022/05/13 15:37:53;;;;;;;7.72;3.15;;;;;;;;;;6227585;28;20618;-67
2022/05/13 15:40:54;;;;;;;6.93;3.47;;;;;;;;;;6228352;28;20058;-71
2022/05/13 15:43:56;;;;;;;9.23;2.92;;;;;;;;;;6228256;28;20085;-67
2022/05/13 15:46:59;;;;;;;5.47;3.05;;;;;;;;;;6225526;28;20057;-68
2022/05/13 15:53:21;;;;;;;9.88;3.78;;;;;;;;;;6222022;28;19921;-66
2022/05/13 15:56:32;;;;;;;143.48;102.03;;;;;;;;;;6222691;28;20288;-68
2022/05/13 15:59:34;;;;;;;40.78;19.90;;;;;;;;;;6227126;28;20512;-70
2022/05/13 16:02:36;;;;;;;54.97;32.13;;;;;;;;;;6226322;28;20050;-68
2022/05/13 16:05:40;;;;;;;11.60;3.70;;;;;;;;;;6225510;28;20054;-69
2022/05/13 16:08:43;;;;;;;6.07;3.38;;;;;;;;;;6223595;28;20379;-70
2022/05/13 16:11:48;;;;;;;6.30;3.15;;;;;;;;;;6222257;28;20238;-69
2022/05/13 16:14:51;;;;;;;17.20;3.30;;;;;;;;;;6226776;28;20060;-68
2022/05/13 16:17:53;;;;;;;7.25;3.20;;;;;;;;;;6223975;28;20050;-69
2022/05/13 16:20:57;;;;;;;4.25;2.80;;;;;;;;;;6215984;28;20515;-70
2022/05/13 16:24:00;;;;;;;6.00;2.92;;;;;;;;;;6228203;28;20089;-69
2022/05/13 16:27:03;;;;;;;6.75;2.80;;;;;;;;;;6227584;28;20076;-70
2022/05/13 16:30:06;;;;;;;7.03;2.72;;;;;;;;;;6223085;28;20052;-70
2022/05/13 16:33:09;;;;;;;4.95;2.78;;;;;;;;;;6224696;28;20050;-70
2022/05/13 16:36:11;;;;;;;4.87;3.27;;;;;;;;;;6223162;28;20046;-69
2022/05/13 16:39:15;;;;;;;9.73;3.15;;;;;;;;;;6221628;28;20545;-69
2022/05/13 16:42:17;;;;;;;6.80;3.53;;;;;;;;;;6218841;28;20064;-71
2022/05/13 16:45:20;;;;;;;8.20;3.00;;;;;;;;;;6216774;28;20054;-69
2022/05/13 16:48:22;;;;;;;;;;;;;;;;;;6220365;28;20080;-69
2022/05/13 16:51:24;;;;;;;10.38;4.00;;;;;;;;;;6224038;28;19944;-69
2022/05/13 16:54:27;;;;;;;5.63;2.70;;;;;;;;;;6220526;28;20240;-70
2022/05/13 16:57:29;;;;;;;7.20;2.67;;;;;;;;;;6222814;28;20226;-69
2022/05/13 17:00:32;;;;;;;6.97;2.95;;;;;;;;;;6219417;28;20058;-69
2022/05/13 17:03:34;;;;;;;12.55;3.10;;;;;;;;;;6220253;28;20050;-70
2022/05/13 17:06:36;;;;;;;6.32;3.00;;;;;;;;;;6223653;28;20064;-71
2022/05/13 17:16:18;;;;;;;8.05;2.85;;;;;;;;;;6194618;28;20068;-67
2022/05/13 17:19:23;;;;;;;8.35;2.75;;;;;;;;;;6223950;28;20057;-68
2022/05/13 17:22:25;;;;;;;6.88;2.90;;;;;;;;;;6227498;28;20105;-67
2022/05/13 17:25:29;;;;;;;7.18;2.80;;;;;;;;;;6217576;28;20088;-67
2022/05/13 17:28:31;;;;;;;7.20;3.20;;;;;;;;;;6227126;28;20053;-68
2022/05/13 17:31:34;;;;;;;10.10;3.10;;;;;;;;;;6219789;28;20041;-68
2022/05/13 17:34:37;;;;;;;8.10;4.32;;;;;;;;;;6215839;28;20100;-68
2022/05/13 17:37:41;;;;;;;8.73;3.13;;;;;;;;;;6217291;28;20049;-69
2022/05/13 17:40:47;;;;;;;4.70;3.05;;;;;;;;;;6214664;28;20181;-65
2022/05/13 17:43:49;;;;;;;6.15;2.90;;;;;;;;;;6222385;28;20076;-68
2022/05/13 17:46:51;;;;;;;7.57;2.92;;;;;;;;;;6226656;28;20057;-68
2022/05/13 17:49:53;;;;;;;5.22;2.72;;;;;;;;;;6223377;28;20396;-66
2022/05/13 17:52:55;;;;;;;9.45;3.25;;;;;;;;;;6223672;28;20177;-67
2022/05/13 17:55:59;;;;;;;6.95;3.45;;;;;;;;;;6225763;28;20109;-66
2022/05/13 17:59:01;;;;;;;7.20;3.17;;;;;;;;;;6224782;28;20117;-68
2022/05/13 18:02:02;;;;;;;7.45;3.08;;;;;;;;;;6225961;28;20284;-67
2022/05/13 18:05:05;;;;;;;9.15;2.95;;;;;;;;;;6225556;28;20045;-67
2022/05/13 18:08:08;;;;;;;6.00;3.07;;;;;;;;;;6223391;28;20113;-69
2022/05/13 18:11:12;;;;;;;6.78;2.70;;;;;;;;;;6232512;28;20444;-66
2022/05/13 18:14:13;;;;;;;;;;;;;;;;;;6223348;28;20046;-68
2022/05/13 18:17:15;;;;;;;6.38;2.75;;;;;;;;;;6228033;28;19940;-68
2022/05/13 18:20:18;;;;;;;8.68;3.03;;;;;;;;;;6223824;28;20058;-67
2022/05/13 18:23:20;;;;;;;6.55;3.15;;;;;;;;;;6221394;28;20328;-67
2022/05/13 18:26:24;;;;;;;6.72;2.80;;;;;;;;;;6225892;28;20353;-67
2022/05/13 18:29:27;;;;;;;6.28;2.60;;;;;;;;;;6223442;28;20313;-68
2022/05/13 18:32:29;;;;;;;6.95;3.20;;;;;;;;;;6221352;28;20050;-66
2022/05/13 18:35:31;;;;;;;7.93;2.53;;;;;;;;;;6222864;28;20046;-67
2022/05/13 18:38:33;;;;;;;8.75;3.20;;;;;;;;;;6226982;28;20100;-67
2022/05/13 18:48:14;;;;;;;9.43;3.22;;;;;;;;;;6224987;28;20113;-66
2022/05/13 18:51:17;;;;;;;6.50;2.83;;;;;;;;;;6220352;28;20065;-67
2022/05/13 18:54:19;;;;;;;5.68;2.53;;;;;;;;;;6226411;28;20070;-68
2022/05/13 18:57:22;;;;;;;7.28;3.47;;;;;;;;;;6223494;28;20050;-67
2022/05/13 19:00:24;;;;;;;8.88;2.78;;;;;;;;;;6219334;28;20214;-67
2022/05/13 19:03:27;;;;;;;8.68;2.70;;;;;;;;;;6223514;28;20053;-67
2022/05/13 19:06:30;;;;;;;6.45;2.97;;;;;;;;;;6228042;28;20270;-71